Time;durP1;ratioP1;P1;durP2;ratioP2;P2;SDS_P1;SDS_P2;PMS_P1;PMS_P2;Temp;Humidity;BMP_temperature;BMP_pressure;BME280_temperature;BME280_humidity;BME280_pressure;Samples;Min_cycle;Max_cycle;Signal;HPM_P1;HPM_P2
2023/05/10 00:00:54;;;;;;;;;;;20.90;94.10;;;;;;5059726;28;19909;-83
2023/05/10 00:03:19;;;;;;;;;;;20.90;93.80;;;;;;5078967;28;19908;-83
2023/05/10 00:05:46;;;;;;;;;;;20.90;93.80;;;;;;5060153;28;19908;-84
2023/05/10 00:08:14;;;;;;;;;;;20.90;93.80;;;;;;5075769;28;19908;-83
2023/05/10 00:10:40;;;;;;;;;;;20.80;93.80;;;;;;5059980;28;19946;-84
2023/05/10 00:13:09;;;;;;;;;;;20.90;93.80;;;;;;5060901;28;19917;-83
2023/05/10 00:15:38;;;;;;;;;;;20.80;93.80;;;;;;5059880;28;19908;-83
2023/05/10 00:18:03;;;;;;;;;;;20.90;93.80;;;;;;5076570;28;19927;-83
2023/05/10 00:20:29;;;;;;;;;;;20.80;93.80;;;;;;5060226;28;20286;-84
2023/05/10 00:22:55;;;;;;;;;;;20.90;93.80;;;;;;5058687;28;19917;-84
2023/05/10 00:25:23;;;;;;;;;;;20.90;93.80;;;;;;5058636;28;19986;-84
2023/05/10 00:27:51;;;;;;;;;;;20.80;93.80;;;;;;5075589;28;19908;-83
2023/05/10 00:30:20;;;;;;;;;;;20.80;93.80;;;;;;5058299;28;19944;-83
2023/05/10 00:32:49;;;;;;;;;;;20.80;93.80;;;;;;5057777;28;19985;-83
2023/05/10 00:35:15;;;;;;;;;;;20.80;93.80;;;;;;5054108;28;19916;-83
2023/05/10 00:37:41;;;;;;;;;;;20.80;93.80;;;;;;5055028;28;19916;-84
2023/05/10 00:40:09;;;;;;;;;;;20.80;93.80;;;;;;5053995;28;19908;-84
2023/05/10 00:42:38;;;;;;;;;;;20.80;93.80;;;;;;5055634;28;20061;-84
2023/05/10 00:45:04;;;;;;;;;;;20.80;93.80;;;;;;5056615;28;20061;-83
2023/05/10 00:47:30;;;;;;;;;;;20.80;93.80;;;;;;5056461;28;20018;-84
2023/05/10 00:50:00;;;;;;;;;;;20.80;93.80;;;;;;5055665;28;19999;-84
2023/05/10 00:54:55;;;;;;;;;;;20.70;93.80;;;;;;5084644;28;20262;-14
2023/05/10 00:57:21;;;;;;;;;;;20.80;93.90;;;;;;5058936;28;19912;-16
2023/05/10 00:59:47;;;;;;;;;;;20.70;93.80;;;;;;5073510;28;19919;-14
2023/05/10 01:02:13;;;;;;;;;;;20.80;93.90;;;;;;5072702;28;19972;-13
2023/05/10 01:04:39;;;;;;;;;;;20.70;93.80;;;;;;5056273;28;19943;-14
2023/05/10 01:07:04;;;;;;;;;;;20.70;93.80;;;;;;5074167;28;19956;-14
2023/05/10 01:09:30;;;;;;;;;;;20.70;93.80;;;;;;5073589;28;19955;-13
2023/05/10 01:11:56;;;;;;;;;;;20.70;93.90;;;;;;5074176;28;20213;-14
2023/05/10 01:14:22;;;;;;;;;;;20.70;93.80;;;;;;5074531;28;20273;-12
2023/05/10 01:16:48;;;;;;;;;;;20.70;93.80;;;;;;5075218;28;19908;-12
2023/05/10 01:19:20;;;;;;;;;;;20.70;93.80;;;;;;5075479;28;20262;-17
2023/05/10 01:22:01;;;;;;;;;;;20.70;93.80;;;;;;5074879;28;20289;-15
2023/05/10 01:24:39;;;;;;;;;;;20.70;93.80;;;;;;5056418;28;19931;-15
2023/05/10 01:27:26;;;;;;;;;;;20.70;93.80;;;;;;5074013;28;19909;-17
2023/05/10 01:30:09;;;;;;;;;;;20.70;93.80;;;;;;5074792;28;19963;-15
2023/05/10 01:32:47;;;;;;;;;;;20.70;93.80;;;;;;5075164;28;19969;-16
2023/05/10 01:35:34;;;;;;;;;;;20.70;93.80;;;;;;5078618;28;20273;-16
2023/05/10 01:38:05;;;;;;;;;;;20.70;93.80;;;;;;5086368;28;20011;-15
2023/05/10 01:40:44;;;;;;;;;;;20.70;93.80;;;;;;5092071;28;19908;-15
2023/05/10 01:43:16;;;;;;;;;;;20.70;93.80;;;;;;5076470;28;19919;-17
2023/05/10 01:45:59;;;;;;;;;;;20.70;93.80;;;;;;5077282;28;19926;-17
2023/05/10 01:48:27;;;;;;;;;;;20.60;93.70;;;;;;5070027;28;19987;-18
2023/05/10 01:50:53;;;;;;;;;;;20.70;93.80;;;;;;5076759;28;19924;-17
2023/05/10 01:53:20;;;;;;;;;;;20.60;93.80;;;;;;5094214;28;19920;-16
2023/05/10 01:55:52;;;;;;;;;;;20.70;93.80;;;;;;5076890;28;19919;-14
2023/05/10 01:58:45;;;;;;;;;;;20.70;93.80;;;;;;5093720;28;19908;-16
2023/05/10 02:01:11;;;;;;;;;;;20.60;93.80;;;;;;5089447;28;19936;-17
2023/05/10 02:03:37;;;;;;;;;;;20.60;93.80;;;;;;5094881;28;19908;-16
2023/05/10 02:06:03;;;;;;;;;;;20.60;93.80;;;;;;5094955;28;20262;-17
2023/05/10 02:08:29;;;;;;;;;;;20.60;93.80;;;;;;5097111;28;19912;-15
2023/05/10 02:10:56;;;;;;;;;;;20.60;93.80;;;;;;5099893;28;19977;-16
2023/05/10 02:13:23;;;;;;;;;;;20.60;93.80;;;;;;5099863;28;19916;-17
2023/05/10 02:15:49;;;;;;;;;;;20.60;93.80;;;;;;5099534;28;19934;-17
2023/05/10 02:18:15;;;;;;;;;;;20.60;93.80;;;;;;5099564;28;19991;-17
2023/05/10 02:20:41;;;;;;;;;;;20.60;93.80;;;;;;5099836;28;20271;-15
2023/05/10 02:23:08;;;;;;;;;;;20.60;93.80;;;;;;5099696;28;19995;-16
2023/05/10 02:25:34;;;;;;;;;;;20.60;93.80;;;;;;5099145;28;19908;-17
2023/05/10 02:28:01;;;;;;;;;;;20.60;93.80;;;;;;5099576;28;19930;-16
2023/05/10 02:30:27;;;;;;;;;;;20.60;93.80;;;;;;5099631;28;19920;-16
2023/05/10 02:32:54;;;;;;;;;;;20.60;93.80;;;;;;5082121;28;19919;-18
2023/05/10 02:35:20;;;;;;;;;;;20.60;93.80;;;;;;5098182;28;20010;-18
2023/05/10 02:37:47;;;;;;;;;;;20.60;93.80;;;;;;5099100;28;19947;-15
2023/05/10 02:40:13;;;;;;;;;;;20.60;93.80;;;;;;5097836;28;19981;-15
2023/05/10 02:42:42;;;;;;;;;;;20.50;93.80;;;;;;5097567;28;19938;-17
2023/05/10 02:45:10;;;;;;;;;;;20.50;93.80;;;;;;5097729;28;19908;-18
2023/05/10 02:47:35;;;;;;;;;;;20.50;93.80;;;;;;5080966;28;20166;-17
2023/05/10 02:50:01;;;;;;;;;;;20.60;93.80;;;;;;5098456;28;19943;-15
2023/05/10 02:52:29;;;;;;;;;;;20.50;93.80;;;;;;5079191;28;19958;-17
2023/05/10 02:54:55;;;;;;;;;;;20.50;93.80;;;;;;5074174;28;19923;-14
2023/05/10 02:57:31;;;;;;;;;;;20.50;93.80;;;;;;5076745;28;19916;-17
2023/05/10 02:59:57;;;;;;;;;;;20.50;93.80;;;;;;5076842;28;19909;-15
2023/05/10 03:02:23;;;;;;;;;;;20.50;93.80;;;;;;5077193;28;19916;-16
2023/05/10 03:04:48;;;;;;;;;;;20.50;93.70;;;;;;5077910;28;19959;-16
2023/05/10 03:07:14;;;;;;;;;;;20.50;93.80;;;;;;5077092;28;19915;-15
2023/05/10 03:09:40;;;;;;;;;;;20.50;93.80;;;;;;5077605;28;20007;-14
2023/05/10 03:12:17;;;;;;;;;;;20.50;93.80;;;;;;5077393;28;19994;-15
2023/05/10 03:15:15;;;;;;;;;;;20.50;93.80;;;;;;5077461;28;20178;-16
2023/05/10 03:17:59;;;;;;;;;;;20.50;93.80;;;;;;5031653;28;20212;-13
2023/05/10 03:20:45;;;;;;;;;;;20.40;93.70;;;;;;5074186;28;19909;-16
2023/05/10 03:23:17;;;;;;;;;;;20.40;93.70;;;;;;5074039;28;19909;-17
2023/05/10 03:25:43;;;;;;;;;;;20.40;93.70;;;;;;5074704;28;19936;-16
2023/05/10 03:28:09;;;;;;;;;;;20.40;93.70;;;;;;5074847;28;20139;-18
2023/05/10 03:30:36;;;;;;;;;;;20.40;93.70;;;;;;5072560;28;20273;-15
2023/05/10 03:33:06;;;;;;;;;;;20.40;93.70;;;;;;5073029;28;19908;-17
2023/05/10 03:35:31;;;;;;;;;;;20.40;93.70;;;;;;5073439;28;19909;-16
2023/05/10 03:37:57;;;;;;;;;;;20.40;93.70;;;;;;5074645;28;19935;-15
2023/05/10 03:40:23;;;;;;;;;;;20.40;93.70;;;;;;5074119;28;19915;-14
2023/05/10 03:42:49;;;;;;;;;;;20.40;93.80;;;;;;5076668;28;20269;-16
2023/05/10 03:45:15;;;;;;;;;;;20.40;93.70;;;;;;5075390;28;19970;-15
2023/05/10 03:47:40;;;;;;;;;;;20.40;93.70;;;;;;5076256;28;19908;-17
2023/05/10 03:50:06;;;;;;;;;;;20.40;93.70;;;;;;5075293;28;19912;-16
2023/05/10 03:52:32;;;;;;;;;;;20.40;93.80;;;;;;5074410;28;19917;-14
2023/05/10 03:54:57;;;;;;;;;;;20.30;93.70;;;;;;5094980;28;20105;-18
2023/05/10 03:57:23;;;;;;;;;;;20.30;93.70;;;;;;5078994;28;19908;-17
2023/05/10 03:59:48;;;;;;;;;;;20.30;93.70;;;;;;5096739;28;19912;-14
2023/05/10 04:02:14;;;;;;;;;;;20.30;93.70;;;;;;5078287;28;20256;-15
2023/05/10 04:04:40;;;;;;;;;;;20.40;93.80;;;;;;5077243;28;20393;-14
2023/05/10 04:07:05;;;;;;;;;;;20.30;93.70;;;;;;5076123;28;20155;-16
2023/05/10 04:09:31;;;;;;;;;;;20.40;93.70;;;;;;5094639;28;19919;-16
2023/05/10 04:11:58;;;;;;;;;;;20.30;93.70;;;;;;5092238;28;20087;-17
2023/05/10 04:14:23;;;;;;;;;;;20.30;93.70;;;;;;5092169;28;20197;-16
2023/05/10 04:16:49;;;;;;;;;;;20.30;93.70;;;;;;5074793;28;20292;-17
2023/05/10 04:19:14;;;;;;;;;;;20.30;93.70;;;;;;5092331;28;19961;-16
2023/05/10 04:21:40;;;;;;;;;;;20.30;93.70;;;;;;5091622;28;19908;-16
2023/05/10 04:24:06;;;;;;;;;;;20.30;93.70;;;;;;5091833;28;19989;-17
2023/05/10 04:26:31;;;;;;;;;;;20.30;93.60;;;;;;5091908;28;19908;-17
2023/05/10 04:28:57;;;;;;;;;;;20.30;93.60;;;;;;5074748;28;19909;-17
2023/05/10 04:31:22;;;;;;;;;;;20.30;93.60;;;;;;5071352;28;19916;-16
2023/05/10 04:33:48;;;;;;;;;;;20.30;93.60;;;;;;5090871;28;20057;-17
2023/05/10 04:36:13;;;;;;;;;;;20.30;93.60;;;;;;5072948;28;19908;-17
2023/05/10 04:38:39;;;;;;;;;;;20.30;93.60;;;;;;5090700;28;20338;-17
2023/05/10 04:41:09;;;;;;;;;;;20.20;93.60;;;;;;5090624;28;19914;-15
2023/05/10 04:43:35;;;;;;;;;;;20.30;93.90;;;;;;5086695;28;19908;-16
2023/05/10 04:46:00;;;;;;;;;;;20.30;93.60;;;;;;5073067;28;20018;-15
2023/05/10 04:48:26;;;;;;;;;;;20.20;93.50;;;;;;5090994;28;20003;-16
2023/05/10 04:50:52;;;;;;;;;;;20.30;93.50;;;;;;5072750;28;19912;-17
2023/05/10 04:53:17;;;;;;;;;;;20.30;93.60;;;;;;5069739;28;19916;-15
2023/05/10 04:55:43;;;;;;;;;;;20.30;93.60;;;;;;5069114;28;19952;-17
2023/05/10 04:58:08;;;;;;;;;;;20.20;93.60;;;;;;5068640;28;20202;-17
2023/05/10 05:00:34;;;;;;;;;;;20.20;93.60;;;;;;5077634;22;19923;-16
2023/05/10 05:02:59;;;;;;;;;;;20.20;93.60;;;;;;5085705;28;19959;-17
2023/05/10 05:05:25;;;;;;;;;;;20.20;93.60;;;;;;5095233;28;20422;-16
2023/05/10 05:07:50;;;;;;;;;;;20.20;93.60;;;;;;5097201;28;19955;-17
2023/05/10 05:10:16;;;;;;;;;;;20.30;93.60;;;;;;5096844;28;19922;-15
2023/05/10 05:12:41;;;;;;;;;;;20.20;93.60;;;;;;5097002;28;19995;-19
2023/05/10 05:15:08;;;;;;;;;;;20.20;93.60;;;;;;5097122;28;19944;-16
2023/05/10 05:17:34;;;;;;;;;;;20.20;93.60;;;;;;5080142;28;19923;-16
2023/05/10 05:20:00;;;;;;;;;;;20.20;93.60;;;;;;5096033;28;19911;-15
2023/05/10 05:22:27;;;;;;;;;;;20.20;93.60;;;;;;5096467;28;19960;-16
2023/05/10 05:24:54;;;;;;;;;;;20.20;93.60;;;;;;5078966;28;19912;-17
2023/05/10 05:27:22;;;;;;;;;;;20.20;93.60;;;;;;5097005;28;19908;-16
2023/05/10 05:29:47;;;;;;;;;;;20.20;93.60;;;;;;5095187;28;20344;-17
2023/05/10 05:32:13;;;;;;;;;;;20.20;93.70;;;;;;5095732;28;20480;-17
2023/05/10 05:34:39;;;;;;;;;;;20.20;93.60;;;;;;5096154;28;20339;-16
2023/05/10 05:37:04;;;;;;;;;;;20.20;93.70;;;;;;5096160;28;20440;-16
2023/05/10 05:39:30;;;;;;;;;;;20.20;93.70;;;;;;5094786;28;19922;-16
2023/05/10 05:42:02;;;;;;;;;;;20.20;93.70;;;;;;5076751;28;19973;-17
2023/05/10 05:44:28;;;;;;;;;;;20.20;93.70;;;;;;5094826;28;19908;-15
2023/05/10 05:46:54;;;;;;;;;;;20.20;93.70;;;;;;5095113;28;19908;-17
2023/05/10 05:49:19;;;;;;;;;;;20.30;93.70;;;;;;5076277;28;19915;-15
2023/05/10 05:51:49;;;;;;;;;;;20.20;93.70;;;;;;5095399;28;20477;-16
2023/05/10 05:54:14;;;;;;;;;;;20.20;93.80;;;;;;5095850;28;19908;-15
2023/05/10 05:56:40;;;;;;;;;;;20.20;93.80;;;;;;5095951;28;19923;-16
2023/05/10 05:59:05;;;;;;;;;;;20.30;93.80;;;;;;5094982;28;19908;-16
2023/05/10 06:01:31;;;;;;;;;;;20.30;93.80;;;;;;5075224;22;19963;-18
2023/05/10 06:03:56;;;;;;;;;;;20.30;93.80;;;;;;5066253;28;20242;-17
2023/05/10 06:06:22;;;;;;;;;;;20.30;93.80;;;;;;5063515;28;20187;-19
2023/05/10 06:08:47;;;;;;;;;;;20.30;93.80;;;;;;5080251;28;20297;-15
2023/05/10 06:11:13;;;;;;;;;;;20.30;93.80;;;;;;5061758;28;20336;-17
2023/05/10 06:13:38;;;;;;;;;;;20.30;93.70;;;;;;5079647;28;19913;-18
2023/05/10 06:16:04;;;;;;;;;;;20.30;93.80;;;;;;5064668;28;20007;-18
2023/05/10 06:18:30;;;;;;;;;;;20.30;93.80;;;;;;5065805;28;19956;-18
2023/05/10 06:20:55;;;;;;;;;;;20.30;93.80;;;;;;5066214;28;19908;-17
2023/05/10 06:23:22;;;;;;;;;;;20.30;93.80;;;;;;5065943;28;19924;-15
2023/05/10 06:25:48;;;;;;;;;;;20.30;93.70;;;;;;5065113;28;20268;-18
2023/05/10 06:28:13;;;;;;;;;;;20.40;93.80;;;;;;5065282;28;19919;-16
2023/05/10 06:30:39;;;;;;;;;;;20.40;93.80;;;;;;5064952;28;20127;-17
2023/05/10 06:33:04;;;;;;;;;;;20.40;93.80;;;;;;5065192;28;19919;-16
2023/05/10 06:35:32;;;;;;;;;;;20.40;93.70;;;;;;5060078;28;19956;-16
2023/05/10 06:37:58;;;;;;;;;;;20.40;93.70;;;;;;5079137;28;19909;-16
2023/05/10 06:40:23;;;;;;;;;;;20.40;93.70;;;;;;5063871;28;19908;-17
2023/05/10 06:42:49;;;;;;;;;;;20.40;93.70;;;;;;5062678;28;19916;-18
2023/05/10 06:45:15;;;;;;;;;;;20.50;93.70;;;;;;5079609;28;19915;-17
2023/05/10 06:47:41;;;;;;;;;;;20.50;93.70;;;;;;5062552;28;20069;-16
2023/05/10 06:50:11;;;;;;;;;;;20.50;93.60;;;;;;5080752;28;19920;-17
2023/05/10 06:52:37;;;;;;;;;;;20.50;93.60;;;;;;5064882;28;19982;-15
2023/05/10 06:55:04;;;;;;;;;;;20.50;93.60;;;;;;5065314;28;19915;-15
2023/05/10 06:57:29;;;;;;;;;;;20.60;93.60;;;;;;5066067;28;19923;-16
2023/05/10 06:59:56;;;;;;;;;;;20.70;93.40;;;;;;5067049;28;19908;-16
2023/05/10 07:02:22;;;;;;;;;;;20.80;93.20;;;;;;5084497;28;20275;-16
2023/05/10 07:04:48;;;;;;;;;;;20.80;93.10;;;;;;5090567;28;20278;-17
2023/05/10 07:07:14;;;;;;;;;;;21.00;93.00;;;;;;5069981;28;19974;-16
2023/05/10 07:09:39;;;;;;;;;;;21.20;92.60;;;;;;5088299;28;19931;-17
2023/05/10 07:12:05;;;;;;;;;;;21.30;92.10;;;;;;5088162;28;19908;-18
2023/05/10 07:14:31;;;;;;;;;;;21.30;92.00;;;;;;5084834;28;19908;-17
2023/05/10 07:16:56;;;;;;;;;;;21.20;92.20;;;;;;5085346;28;19947;-17
2023/05/10 07:19:22;;;;;;;;;;;21.30;92.20;;;;;;5085183;28;20160;-15
2023/05/10 07:21:47;;;;;;;;;;;21.40;91.90;;;;;;5084149;28;19919;-18
2023/05/10 07:24:13;;;;;;;;;;;21.40;91.70;;;;;;5068038;28;20305;-17
2023/05/10 07:26:39;;;;;;;;;;;21.40;91.80;;;;;;5068313;28;20012;-15
2023/05/10 07:29:05;;;;;;;;;;;21.40;91.70;;;;;;5070143;28;19908;-17
2023/05/10 07:31:30;;;;;;;;;;;21.40;91.70;;;;;;5088228;28;20172;-17
2023/05/10 07:33:56;;;;;;;;;;;21.40;91.70;;;;;;5088242;28;19908;-18
2023/05/10 07:36:22;;;;;;;;;;;21.50;91.90;;;;;;5068904;28;19954;-17
2023/05/10 07:38:49;;;;;;;;;;;21.50;91.40;;;;;;5088543;28;19948;-16
2023/05/10 07:41:14;;;;;;;;;;;21.50;91.60;;;;;;5088141;28;20033;-17
2023/05/10 07:43:40;;;;;;;;;;;21.50;91.60;;;;;;5070138;28;20209;-17
2023/05/10 07:46:06;;;;;;;;;;;21.50;91.40;;;;;;5087791;28;19908;-14
2023/05/10 07:48:31;;;;;;;;;;;21.60;91.40;;;;;;5085529;28;20026;-17
2023/05/10 07:50:57;;;;;;;;;;;21.50;91.40;;;;;;5085894;28;19976;-18
2023/05/10 07:53:22;;;;;;;;;;;21.80;90.90;;;;;;5089119;28;19969;-18
2023/05/10 07:55:51;;;;;;;;;;;21.80;90.60;;;;;;5087463;28;20343;-17
2023/05/10 07:58:17;;;;;;;;;;;21.80;90.70;;;;;;5087021;28;20457;-17
2023/05/10 08:00:43;;;;;;;;;;;21.60;90.90;;;;;;5085903;28;20072;-18
2023/05/10 08:03:08;;;;;;;;;;;21.50;90.90;;;;;;5066699;28;19973;-17
2023/05/10 08:05:34;;;;;;;;;;;21.50;91.20;;;;;;5085568;28;19916;-16
2023/05/10 08:08:00;;;;;;;;;;;21.50;91.30;;;;;;5086831;28;20123;-18
2023/05/10 08:10:25;;;;;;;;;;;21.50;91.40;;;;;;5070910;28;19954;-16
2023/05/10 08:12:51;;;;;;;;;;;21.50;91.50;;;;;;5070036;28;20146;-17
2023/05/10 08:15:16;;;;;;;;;;;21.50;91.60;;;;;;5086271;28;19908;-16
2023/05/10 08:17:42;;;;;;;;;;;21.40;91.60;;;;;;5087002;28;19923;-15
2023/05/10 08:20:08;;;;;;;;;;;21.40;91.70;;;;;;5089146;28;19912;-15
2023/05/10 08:22:34;;;;;;;;;;;21.40;91.80;;;;;;5070662;28;19935;-17
2023/05/10 08:24:59;;;;;;;;;;;21.40;91.90;;;;;;5087905;28;20448;-16
2023/05/10 08:27:25;;;;;;;;;;;21.30;92.00;;;;;;5087820;28;19908;-15
2023/05/10 08:29:50;;;;;;;;;;;21.30;92.00;;;;;;5069169;28;19947;-17
2023/05/10 08:32:16;;;;;;;;;;;21.30;92.00;;;;;;5086197;28;20142;-16
2023/05/10 08:34:42;;;;;;;;;;;21.40;92.00;;;;;;5086038;28;19912;-16
2023/05/10 08:37:07;;;;;;;;;;;21.40;91.90;;;;;;5087056;28;19916;-18
2023/05/10 08:39:36;;;;;;;;;;;21.30;92.00;;;;;;5070484;28;20154;-16
2023/05/10 08:42:03;;;;;;;;;;;21.40;92.00;;;;;;5087897;28;19926;-15
2023/05/10 08:44:31;;;;;;;;;;;21.40;91.90;;;;;;5088052;28;19968;-17
2023/05/10 08:46:58;;;;;;;;;;;21.60;91.60;;;;;;5069777;28;20270;-16
2023/05/10 08:49:25;;;;;;;;;;;21.90;91.10;;;;;;5087279;28;19961;-17
2023/05/10 08:51:54;;;;;;;;;;;22.10;90.40;;;;;;5087134;28;19947;-15
2023/05/10 08:54:21;;;;;;;;;;;22.70;88.80;;;;;;5068571;28;20087;-21
2023/05/10 08:56:47;;;;;;;;;;;23.20;85.20;;;;;;5085271;28;20067;-17
2023/05/10 08:59:14;;;;;;;;;;;23.10;83.20;;;;;;5087195;28;20022;-16
2023/05/10 09:01:40;;;;;;;;;;;22.80;84.40;;;;;;5069689;28;19920;-18
2023/05/10 09:04:05;;;;;;;;;;;22.60;86.10;;;;;;5089641;28;19909;-18
2023/05/10 09:06:32;;;;;;;;;;;22.40;86.70;;;;;;5088083;28;19919;-16
2023/05/10 09:08:58;;;;;;;;;;;22.40;86.90;;;;;;5088321;28;19919;-18
2023/05/10 09:11:24;;;;;;;;;;;22.50;86.30;;;;;;5085321;28;19977;-17
2023/05/10 09:13:50;;;;;;;;;;;22.40;86.20;;;;;;5084511;28;19908;-17
2023/05/10 09:16:16;;;;;;;;;;;22.40;86.80;;;;;;5086965;28;19914;-16
2023/05/10 09:18:41;;;;;;;;;;;22.30;87.30;;;;;;5084265;28;19908;-17
2023/05/10 09:21:07;;;;;;;;;;;22.30;87.80;;;;;;5086141;28;20243;-15
2023/05/10 09:23:33;;;;;;;;;;;22.40;87.50;;;;;;5084434;28;20093;-18
2023/05/10 09:26:04;;;;;;;;;;;22.50;86.60;;;;;;5087296;28;19908;-18
2023/05/10 09:28:53;;;;;;;;;;;22.50;86.40;;;;;;5089295;28;19939;-18
2023/05/10 09:31:19;;;;;;;;;;;22.50;86.20;;;;;;5061530;28;20023;-18
2023/05/10 09:33:46;;;;;;;;;;;22.60;86.20;;;;;;5085266;28;19926;-14
2023/05/10 09:36:12;;;;;;;;;;;22.60;86.20;;;;;;5068600;28;19908;-14
2023/05/10 09:38:47;;;;;;;;;;;22.70;85.50;;;;;;5086285;28;19924;-16
2023/05/10 09:41:21;;;;;;;;;;;22.80;85.00;;;;;;5084974;28;20136;-15
2023/05/10 09:43:46;;;;;;;;;;;22.80;84.80;;;;;;5084683;28;19908;-17
2023/05/10 09:46:12;;;;;;;;;;;23.00;83.80;;;;;;5087021;28;19915;-18
2023/05/10 09:48:47;;;;;;;;;;;23.00;83.50;;;;;;5086747;28;20003;-17
2023/05/10 09:51:23;;;;;;;;;;;23.00;83.40;;;;;;5086347;28;20147;-17
2023/05/10 09:53:57;;;;;;;;;;;23.20;82.60;;;;;;5087763;28;20188;-16
2023/05/10 09:56:35;;;;;;;;;;;23.20;81.80;;;;;;5086065;28;20261;-16
2023/05/10 09:59:04;;;;;;;;;;;23.20;81.70;;;;;;5068633;28;19908;-17
2023/05/10 10:01:30;;;;;;;;;;;23.20;81.70;;;;;;5070200;28;19981;-18
2023/05/10 10:03:57;;;;;;;;;;;23.10;81.90;;;;;;5086993;28;19908;-16
2023/05/10 10:06:23;;;;;;;;;;;23.00;82.40;;;;;;5087370;28;20428;-18
2023/05/10 10:08:48;;;;;;;;;;;22.90;82.90;;;;;;5069833;28;19955;-16
2023/05/10 10:11:14;;;;;;;;;;;22.90;83.20;;;;;;5066892;28;19912;-18
2023/05/10 10:13:40;;;;;;;;;;;22.80;83.60;;;;;;5068763;28;19973;-17
2023/05/10 10:16:06;;;;;;;;;;;22.80;84.00;;;;;;5086493;28;20283;-17
2023/05/10 10:18:32;;;;;;;;;;;22.80;84.70;;;;;;5087173;28;19948;-18
2023/05/10 10:20:58;;;;;;;;;;;22.80;84.30;;;;;;5085845;28;19962;-19
2023/05/10 10:23:24;;;;;;;;;;;22.80;84.30;;;;;;5085390;28;20057;-18
2023/05/10 10:25:49;;;;;;;;;;;22.70;84.50;;;;;;5086597;28;20002;-16
2023/05/10 10:28:21;;;;;;;;;;;22.70;84.80;;;;;;5086429;28;20326;-18
2023/05/10 10:30:48;;;;;;;;;;;22.60;85.50;;;;;;5092140;28;20019;-18
2023/05/10 10:33:32;;;;;;;;;;;22.50;85.90;;;;;;5092588;28;19908;-18
2023/05/10 10:35:59;;;;;;;;;;;22.50;86.30;;;;;;5089742;28;19918;-16
2023/05/10 10:38:25;;;;;;;;;;;22.50;86.70;;;;;;5089422;28;19908;-17
2023/05/10 10:41:09;;;;;;;;;;;22.50;86.70;;;;;;5072407;28;19919;-17
2023/05/10 10:43:34;;;;;;;;;;;22.60;86.40;;;;;;5089400;28;19908;-19
2023/05/10 10:46:19;;;;;;;;;;;22.60;85.90;;;;;;5086273;28;19918;-16
2023/05/10 10:48:48;;;;;;;;;;;22.70;85.60;;;;;;5085920;28;20289;-18
2023/05/10 10:51:14;;;;;;;;;;;22.70;85.20;;;;;;5087729;28;20305;-18
2023/05/10 10:53:40;;;;;;;;;;;22.80;85.10;;;;;;5086070;28;19912;-16
2023/05/10 10:56:07;;;;;;;;;;;22.90;84.60;;;;;;5085932;28;20184;-18
2023/05/10 10:58:33;;;;;;;;;;;22.90;84.30;;;;;;5084854;28;19909;-18
2023/05/10 11:01:09;;;;;;;;;;;22.90;84.20;;;;;;5085673;28;20177;-18
2023/05/10 11:03:35;;;;;;;;;;;22.80;84.30;;;;;;5084978;28;20270;-17
2023/05/10 11:06:01;;;;;;;;;;;22.70;84.90;;;;;;5085472;28;19958;-17
2023/05/10 11:08:27;;;;;;;;;;;22.70;84.90;;;;;;5088096;28;20289;-16
2023/05/10 11:10:59;;;;;;;;;;;22.70;85.10;;;;;;5089549;28;19922;-17
2023/05/10 11:13:41;;;;;;;;;;;22.70;85.10;;;;;;5087592;28;19930;-15
2023/05/10 11:16:14;;;;;;;;;;;22.70;85.00;;;;;;5086535;28;20096;-16
2023/05/10 11:18:40;;;;;;;;;;;22.70;84.70;;;;;;5086920;28;20227;-17
2023/05/10 11:21:10;;;;;;;;;;;22.80;84.60;;;;;;5084089;28;19916;-16
2023/05/10 11:23:57;;;;;;;;;;;22.80;84.50;;;;;;5082154;28;19965;-17
2023/05/10 11:26:25;;;;;;;;;;;22.80;84.40;;;;;;5084286;28;19915;-18
2023/05/10 11:28:51;;;;;;;;;;;22.80;84.30;;;;;;5085984;28;20009;-17
2023/05/10 11:31:17;;;;;;;;;;;22.80;84.30;;;;;;5087844;28;19912;-16
2023/05/10 11:33:54;;;;;;;;;;;22.80;84.50;;;;;;5069188;28;20073;-15
2023/05/10 11:36:20;;;;;;;;;;;22.70;84.50;;;;;;5089266;28;19919;-18
2023/05/10 11:38:46;;;;;;;;;;;22.70;84.70;;;;;;5086824;28;19920;-18
2023/05/10 11:41:12;;;;;;;;;;;22.70;84.80;;;;;;5088254;28;19915;-16
2023/05/10 11:43:39;;;;;;;;;;;22.60;85.10;;;;;;5090040;28;19908;-14
2023/05/10 11:46:09;;;;;;;;;;;22.60;85.30;;;;;;5090180;28;20260;-18
2023/05/10 11:48:35;;;;;;;;;;;22.60;85.60;;;;;;5090550;28;20189;-18
2023/05/10 11:51:01;;;;;;;;;;;22.60;85.50;;;;;;5071028;28;20308;-17
2023/05/10 11:53:27;;;;;;;;;;;22.60;85.60;;;;;;5089833;28;20061;-18
2023/05/10 11:55:53;;;;;;;;;;;22.60;85.30;;;;;;5089093;28;19930;-17
2023/05/10 11:58:19;;;;;;;;;;;22.60;85.10;;;;;;5072282;28;19908;-16
2023/05/10 12:00:45;;;;;;;;;;;22.70;85.00;;;;;;5091087;28;19912;-18
2023/05/10 12:03:11;;;;;;;;;;;22.70;84.80;;;;;;5072277;28;19919;-17
2023/05/10 12:05:37;;;;;;;;;;;22.70;84.70;;;;;;5070705;28;19908;-15
2023/05/10 12:08:15;;;;;;;;;;;22.70;84.60;;;;;;5087143;28;19908;-19
2023/05/10 12:10:41;;;;;;;;;;;22.80;84.40;;;;;;5070813;28;20506;-18
2023/05/10 12:13:16;;;;;;;;;;;22.80;84.00;;;;;;5070003;28;20140;-18
2023/05/10 12:15:42;;;;;;;;;;;22.80;83.80;;;;;;5084680;28;19930;-16
2023/05/10 12:18:10;;;;;;;;;;;22.90;83.80;;;;;;5067378;28;19908;-18
2023/05/10 12:20:35;;;;;;;;;;;22.90;83.70;;;;;;5085224;28;19915;-19
2023/05/10 12:23:02;;;;;;;;;;;22.80;83.70;;;;;;5083775;28;19908;-15
2023/05/10 12:25:35;;;;;;;;;;;22.80;83.90;;;;;;5085550;28;20193;-18
2023/05/10 12:28:05;;;;;;;;;;;22.80;83.90;;;;;;5060610;28;20206;-18
2023/05/10 12:30:32;;;;;;;;;;;22.80;83.60;;;;;;5056232;28;19912;-16
2023/05/10 12:33:01;;;;;;;;;;;23.00;83.40;;;;;;5075817;28;20274;-19
2023/05/10 12:35:31;;;;;;;;;;;23.00;83.00;;;;;;5074932;28;19909;-19
2023/05/10 12:38:24;;;;;;;;;;;23.00;82.80;;;;;;5083029;28;19912;-19
2023/05/10 12:40:50;;;;;;;;;;;23.00;82.70;;;;;;5079051;28;19918;-19
2023/05/10 12:43:15;;;;;;;;;;;23.00;82.40;;;;;;5078679;28;19908;-19
2023/05/10 12:45:47;;;;;;;;;;;23.10;82.30;;;;;;5096782;28;20023;-18
2023/05/10 12:48:13;;;;;;;;;;;23.10;82.80;;;;;;5078703;28;19965;-16
2023/05/10 12:50:38;;;;;;;;;;;23.10;82.10;;;;;;5096710;28;19920;-17
2023/05/10 12:53:04;;;;;;;;;;;23.10;82.10;;;;;;5095875;28;19908;-18
2023/05/10 12:55:37;;;;;;;;;;;23.10;82.10;;;;;;5096813;28;19916;-18
2023/05/10 12:58:02;;;;;;;;;;;23.10;82.20;;;;;;5096371;28;19908;-19
2023/05/10 13:00:28;;;;;;;;;;;23.10;82.10;;;;;;5077801;28;19908;-16
2023/05/10 13:02:53;;;;;;;;;;;23.20;82.00;;;;;;5096471;28;19920;-18
2023/05/10 13:05:19;;;;;;;;;;;23.20;81.80;;;;;;5096135;28;19908;-19
2023/05/10 13:07:45;;;;;;;;;;;23.30;82.10;;;;;;5096994;28;19973;-15
2023/05/10 13:10:11;;;;;;;;;;;23.30;81.00;;;;;;5094762;28;19935;-18
2023/05/10 13:12:36;;;;;;;;;;;23.30;80.60;;;;;;5086436;28;19908;-18
2023/05/10 13:15:02;;;;;;;;;;;23.40;79.90;;;;;;5068229;28;19916;-19
2023/05/10 13:17:28;;;;;;;;;;;23.50;79.30;;;;;;5071174;28;19947;-17
2023/05/10 13:19:54;;;;;;;;;;;23.50;79.50;;;;;;5096307;28;19951;-19
2023/05/10 13:22:19;;;;;;;;;;;23.60;78.90;;;;;;5095090;28;19908;-19
2023/05/10 13:24:45;;;;;;;;;;;23.60;78.60;;;;;;5095286;28;19919;-16
2023/05/10 13:27:10;;;;;;;;;;;23.60;78.40;;;;;;5093774;28;20241;-19
2023/05/10 13:29:36;;;;;;;;;;;23.60;78.20;;;;;;5095429;28;20182;-17
2023/05/10 13:32:01;;;;;;;;;;;23.70;77.90;;;;;;5064775;28;19976;-19
2023/05/10 13:34:27;;;;;;;;;;;23.70;77.80;;;;;;5074898;28;19908;-19
2023/05/10 13:36:53;;;;;;;;;;;23.70;77.70;;;;;;5074973;28;19913;-18
2023/05/10 13:39:20;;;;;;;;;;;23.70;77.80;;;;;;5075143;28;19908;-19
2023/05/10 13:41:45;;;;;;;;;;;23.70;77.80;;;;;;5069179;28;19908;-18
2023/05/10 13:44:12;;;;;;;;;;;23.70;77.70;;;;;;5067582;28;19916;-19
2023/05/10 13:46:38;;;;;;;;;;;23.60;77.60;;;;;;5062493;23;20024;-19
2023/05/10 13:49:04;;;;;;;;;;;23.70;77.70;;;;;;5064186;28;20319;-17
2023/05/10 13:51:29;;;;;;;;;;;23.70;77.60;;;;;;5063861;28;19919;-17
2023/05/10 13:53:55;;;;;;;;;;;23.70;77.60;;;;;;5061034;28;20002;-19
2023/05/10 13:56:20;;;;;;;;;;;23.70;77.60;;;;;;5062117;28;19915;-17
2023/05/10 13:58:47;;;;;;;;;;;23.60;77.60;;;;;;5061416;28;19920;-17
2023/05/10 14:01:12;;;;;;;;;;;23.60;77.60;;;;;;5061736;28;19912;-17
2023/05/10 14:03:38;;;;;;;;;;;23.60;77.50;;;;;;5063896;28;19908;-18
2023/05/10 14:06:04;;;;;;;;;;;23.60;77.50;;;;;;5069158;28;20007;-18
2023/05/10 14:08:29;;;;;;;;;;;23.60;77.60;;;;;;5069832;28;20431;-17
2023/05/10 14:10:56;;;;;;;;;;;23.60;77.60;;;;;;5070667;28;20289;-19
2023/05/10 14:13:23;;;;;;;;;;;23.60;77.70;;;;;;5070809;28;20197;-17
2023/05/10 14:15:49;;;;;;;;;;;23.60;77.60;;;;;;5072298;28;19908;-17
2023/05/10 14:18:14;;;;;;;;;;;23.60;77.50;;;;;;5069399;28;19912;-19
2023/05/10 14:20:40;;;;;;;;;;;23.60;77.60;;;;;;5067145;28;19913;-15